sensor_id;sensor_type;location;lat;lon;timestamp;P1;durP1;ratioP1;P2;durP2;ratioP2
12363;SDS011;6246;50.826;4.712;2024-02-21T00:02:23;9.93;;;3.40;;
12363;SDS011;6246;50.826;4.712;2024-02-21T00:04:49;9.80;;;3.57;;
12363;SDS011;6246;50.826;4.712;2024-02-21T00:07:15;10.17;;;3.17;;
12363;SDS011;6246;50.826;4.712;2024-02-21T00:09:41;11.93;;;2.93;;
12363;SDS011;6246;50.826;4.712;2024-02-21T00:12:08;5.77;;;3.00;;
12363;SDS011;6246;50.826;4.712;2024-02-21T00:14:34;4.43;;;2.63;;
12363;SDS011;6246;50.826;4.712;2024-02-21T00:17:00;7.87;;;3.40;;
12363;SDS011;6246;50.826;4.712;2024-02-21T00:19:26;8.60;;;3.17;;
12363;SDS011;6246;50.826;4.712;2024-02-21T00:21:52;4.93;;;2.53;;
12363;SDS011;6246;50.826;4.712;2024-02-21T00:24:18;7.03;;;2.83;;
12363;SDS011;6246;50.826;4.712;2024-02-21T00:26:44;5.73;;;3.13;;
12363;SDS011;6246;50.826;4.712;2024-02-21T00:29:10;7.97;;;3.50;;
12363;SDS011;6246;50.826;4.712;2024-02-21T00:31:36;7.10;;;2.80;;
12363;SDS011;6246;50.826;4.712;2024-02-21T00:34:02;6.53;;;2.93;;
12363;SDS011;6246;50.826;4.712;2024-02-21T00:36:28;3.90;;;3.03;;
12363;SDS011;6246;50.826;4.712;2024-02-21T00:38:54;5.03;;;2.93;;
12363;SDS011;6246;50.826;4.712;2024-02-21T00:41:20;6.60;;;3.23;;
12363;SDS011;6246;50.826;4.712;2024-02-21T00:43:46;3.90;;;2.50;;
12363;SDS011;6246;50.826;4.712;2024-02-21T00:46:13;5.13;;;3.03;;
12363;SDS011;6246;50.826;4.712;2024-02-21T00:48:39;7.40;;;2.87;;
12363;SDS011;6246;50.826;4.712;2024-02-21T00:51:05;4.83;;;2.93;;
12363;SDS011;6246;50.826;4.712;2024-02-21T00:53:31;6.00;;;2.90;;
12363;SDS011;6246;50.826;4.712;2024-02-21T00:55:57;6.30;;;2.73;;
12363;SDS011;6246;50.826;4.712;2024-02-21T00:58:23;3.97;;;2.63;;
12363;SDS011;6246;50.826;4.712;2024-02-21T01:00:49;4.07;;;2.70;;
12363;SDS011;6246;50.826;4.712;2024-02-21T01:03:15;5.53;;;2.87;;
12363;SDS011;6246;50.826;4.712;2024-02-21T01:05:41;7.60;;;3.47;;
12363;SDS011;6246;50.826;4.712;2024-02-21T01:08:07;6.40;;;3.10;;
12363;SDS011;6246;50.826;4.712;2024-02-21T01:10:33;5.93;;;3.23;;
12363;SDS011;6246;50.826;4.712;2024-02-21T01:12:59;6.17;;;3.13;;
12363;SDS011;6246;50.826;4.712;2024-02-21T01:15:25;4.77;;;3.13;;
12363;SDS011;6246;50.826;4.712;2024-02-21T01:17:51;5.77;;;3.00;;
12363;SDS011;6246;50.826;4.712;2024-02-21T01:20:20;5.33;;;3.07;;
12363;SDS011;6246;50.826;4.712;2024-02-21T01:22:46;6.93;;;3.30;;
12363;SDS011;6246;50.826;4.712;2024-02-21T01:25:12;3.63;;;2.77;;
12363;SDS011;6246;50.826;4.712;2024-02-21T01:27:38;3.80;;;3.10;;
12363;SDS011;6246;50.826;4.712;2024-02-21T01:30:04;4.23;;;2.40;;
12363;SDS011;6246;50.826;4.712;2024-02-21T01:32:30;4.87;;;2.77;;
12363;SDS011;6246;50.826;4.712;2024-02-21T01:34:57;6.80;;;3.03;;
12363;SDS011;6246;50.826;4.712;2024-02-21T01:37:22;4.63;;;3.03;;
12363;SDS011;6246;50.826;4.712;2024-02-21T01:39:48;5.50;;;3.17;;
12363;SDS011;6246;50.826;4.712;2024-02-21T01:42:15;4.87;;;2.90;;
12363;SDS011;6246;50.826;4.712;2024-02-21T01:44:41;6.40;;;3.03;;
12363;SDS011;6246;50.826;4.712;2024-02-21T01:47:07;6.33;;;2.63;;
12363;SDS011;6246;50.826;4.712;2024-02-21T01:49:34;4.53;;;3.10;;
12363;SDS011;6246;50.826;4.712;2024-02-21T01:52:00;4.87;;;2.70;;
12363;SDS011;6246;50.826;4.712;2024-02-21T01:54:26;3.93;;;2.70;;
12363;SDS011;6246;50.826;4.712;2024-02-21T01:56:53;6.70;;;3.03;;
12363;SDS011;6246;50.826;4.712;2024-02-21T01:59:19;3.73;;;2.67;;
12363;SDS011;6246;50.826;4.712;2024-02-21T02:01:47;5.53;;;3.00;;
12363;SDS011;6246;50.826;4.712;2024-02-21T02:04:13;5.87;;;2.97;;
12363;SDS011;6246;50.826;4.712;2024-02-21T02:06:39;4.20;;;2.87;;
12363;SDS011;6246;50.826;4.712;2024-02-21T02:09:06;6.43;;;3.63;;
12363;SDS011;6246;50.826;4.712;2024-02-21T02:11:32;4.57;;;3.07;;
12363;SDS011;6246;50.826;4.712;2024-02-21T02:13:59;7.10;;;3.17;;
12363;SDS011;6246;50.826;4.712;2024-02-21T02:16:24;4.40;;;2.97;;
12363;SDS011;6246;50.826;4.712;2024-02-21T02:18:50;4.97;;;2.93;;
12363;SDS011;6246;50.826;4.712;2024-02-21T02:21:29;4.37;;;2.40;;
12363;SDS011;6246;50.826;4.712;2024-02-21T02:23:55;6.20;;;3.00;;
12363;SDS011;6246;50.826;4.712;2024-02-21T02:26:21;5.70;;;2.50;;
12363;SDS011;6246;50.826;4.712;2024-02-21T02:28:47;7.53;;;3.50;;
12363;SDS011;6246;50.826;4.712;2024-02-21T02:31:13;3.37;;;2.70;;
12363;SDS011;6246;50.826;4.712;2024-02-21T02:33:42;4.30;;;2.53;;
12363;SDS011;6246;50.826;4.712;2024-02-21T02:36:09;4.13;;;2.70;;
12363;SDS011;6246;50.826;4.712;2024-02-21T02:38:35;5.43;;;2.83;;
12363;SDS011;6246;50.826;4.712;2024-02-21T02:41:01;4.43;;;2.80;;
12363;SDS011;6246;50.826;4.712;2024-02-21T02:43:27;5.27;;;3.10;;
12363;SDS011;6246;50.826;4.712;2024-02-21T02:45:53;4.13;;;2.60;;
12363;SDS011;6246;50.826;4.712;2024-02-21T02:48:20;5.07;;;2.63;;
12363;SDS011;6246;50.826;4.712;2024-02-21T02:50:46;4.83;;;2.20;;
12363;SDS011;6246;50.826;4.712;2024-02-21T02:53:12;2.40;;;1.97;;
12363;SDS011;6246;50.826;4.712;2024-02-21T02:55:38;4.10;;;2.63;;
12363;SDS011;6246;50.826;4.712;2024-02-21T02:58:04;4.63;;;2.77;;
12363;SDS011;6246;50.826;4.712;2024-02-21T03:00:30;4.70;;;2.80;;
12363;SDS011;6246;50.826;4.712;2024-02-21T03:03:00;4.43;;;2.67;;
12363;SDS011;6246;50.826;4.712;2024-02-21T03:05:29;4.60;;;2.60;;
12363;SDS011;6246;50.826;4.712;2024-02-21T03:07:55;4.60;;;2.97;;
12363;SDS011;6246;50.826;4.712;2024-02-21T03:10:21;4.60;;;2.67;;
12363;SDS011;6246;50.826;4.712;2024-02-21T03:12:47;3.17;;;2.50;;
12363;SDS011;6246;50.826;4.712;2024-02-21T03:15:13;3.13;;;2.57;;
12363;SDS011;6246;50.826;4.712;2024-02-21T03:17:39;3.60;;;2.47;;
12363;SDS011;6246;50.826;4.712;2024-02-21T03:20:06;4.13;;;2.17;;
12363;SDS011;6246;50.826;4.712;2024-02-21T03:22:35;4.20;;;2.50;;
12363;SDS011;6246;50.826;4.712;2024-02-21T03:25:01;4.97;;;2.77;;
12363;SDS011;6246;50.826;4.712;2024-02-21T03:27:27;3.43;;;2.43;;
12363;SDS011;6246;50.826;4.712;2024-02-21T03:29:53;3.40;;;2.30;;
12363;SDS011;6246;50.826;4.712;2024-02-21T03:32:19;3.97;;;2.20;;
12363;SDS011;6246;50.826;4.712;2024-02-21T03:34:45;3.07;;;2.73;;
12363;SDS011;6246;50.826;4.712;2024-02-21T03:37:11;4.13;;;2.60;;
12363;SDS011;6246;50.826;4.712;2024-02-21T03:39:38;3.83;;;2.27;;
12363;SDS011;6246;50.826;4.712;2024-02-21T03:42:04;4.23;;;2.40;;
12363;SDS011;6246;50.826;4.712;2024-02-21T03:44:31;4.83;;;2.70;;
12363;SDS011;6246;50.826;4.712;2024-02-21T03:46:57;2.80;;;2.30;;
12363;SDS011;6246;50.826;4.712;2024-02-21T03:49:23;4.07;;;2.13;;
12363;SDS011;6246;50.826;4.712;2024-02-21T03:51:49;4.03;;;2.30;;
12363;SDS011;6246;50.826;4.712;2024-02-21T03:54:15;3.30;;;2.40;;
12363;SDS011;6246;50.826;4.712;2024-02-21T03:56:41;4.00;;;2.70;;
12363;SDS011;6246;50.826;4.712;2024-02-21T03:59:07;2.57;;;2.30;;
12363;SDS011;6246;50.826;4.712;2024-02-21T04:01:34;4.40;;;2.47;;
12363;SDS011;6246;50.826;4.712;2024-02-21T04:04:00;4.10;;;2.50;;
12363;SDS011;6246;50.826;4.712;2024-02-21T04:06:26;4.13;;;2.30;;
12363;SDS011;6246;50.826;4.712;2024-02-21T04:08:52;2.73;;;1.97;;
12363;SDS011;6246;50.826;4.712;2024-02-21T04:11:18;4.07;;;2.30;;
12363;SDS011;6246;50.826;4.712;2024-02-21T04:13:44;5.13;;;2.70;;
12363;SDS011;6246;50.826;4.712;2024-02-21T04:16:13;4.27;;;2.50;;
12363;SDS011;6246;50.826;4.712;2024-02-21T04:18:39;3.30;;;2.43;;
12363;SDS011;6246;50.826;4.712;2024-02-21T04:21:05;3.37;;;2.47;;
12363;SDS011;6246;50.826;4.712;2024-02-21T04:23:31;2.50;;;2.30;;
12363;SDS011;6246;50.826;4.712;2024-02-21T04:25:57;4.47;;;2.47;;
12363;SDS011;6246;50.826;4.712;2024-02-21T04:28:23;4.97;;;2.67;;
12363;SDS011;6246;50.826;4.712;2024-02-21T04:30:49;3.80;;;2.43;;
12363;SDS011;6246;50.826;4.712;2024-02-21T04:33:15;5.43;;;2.47;;
12363;SDS011;6246;50.826;4.712;2024-02-21T04:35:41;4.17;;;2.77;;
12363;SDS011;6246;50.826;4.712;2024-02-21T04:38:07;6.50;;;2.90;;
12363;SDS011;6246;50.826;4.712;2024-02-21T04:40:33;5.40;;;2.77;;
12363;SDS011;6246;50.826;4.712;2024-02-21T04:42:59;5.17;;;2.23;;
12363;SDS011;6246;50.826;4.712;2024-02-21T04:45:25;7.17;;;2.13;;
12363;SDS011;6246;50.826;4.712;2024-02-21T04:47:51;3.57;;;2.70;;
12363;SDS011;6246;50.826;4.712;2024-02-21T04:50:17;6.87;;;2.50;;
12363;SDS011;6246;50.826;4.712;2024-02-21T04:52:43;3.17;;;2.30;;
12363;SDS011;6246;50.826;4.712;2024-02-21T04:55:09;5.27;;;2.50;;
12363;SDS011;6246;50.826;4.712;2024-02-21T04:57:35;6.63;;;2.40;;
12363;SDS011;6246;50.826;4.712;2024-02-21T05:00:01;4.93;;;2.30;;
12363;SDS011;6246;50.826;4.712;2024-02-21T05:02:28;4.03;;;2.23;;
12363;SDS011;6246;50.826;4.712;2024-02-21T05:04:55;6.37;;;2.80;;
12363;SDS011;6246;50.826;4.712;2024-02-21T05:07:21;2.63;;;2.20;;
12363;SDS011;6246;50.826;4.712;2024-02-21T05:09:47;5.10;;;2.30;;
12363;SDS011;6246;50.826;4.712;2024-02-21T05:12:13;4.57;;;2.57;;
12363;SDS011;6246;50.826;4.712;2024-02-21T05:14:39;4.03;;;2.70;;
12363;SDS011;6246;50.826;4.712;2024-02-21T05:17:05;5.07;;;2.30;;
12363;SDS011;6246;50.826;4.712;2024-02-21T05:19:31;4.67;;;2.60;;
12363;SDS011;6246;50.826;4.712;2024-02-21T05:21:58;5.20;;;2.60;;
12363;SDS011;6246;50.826;4.712;2024-02-21T05:24:24;2.90;;;2.40;;
12363;SDS011;6246;50.826;4.712;2024-02-21T05:26:51;3.87;;;2.47;;
12363;SDS011;6246;50.826;4.712;2024-02-21T05:29:17;2.20;;;1.90;;
12363;SDS011;6246;50.826;4.712;2024-02-21T05:31:54;5.37;;;2.40;;
12363;SDS011;6246;50.826;4.712;2024-02-21T05:34:24;3.67;;;2.33;;
12363;SDS011;6246;50.826;4.712;2024-02-21T05:36:50;3.73;;;2.47;;
12363;SDS011;6246;50.826;4.712;2024-02-21T05:39:17;4.83;;;2.60;;
12363;SDS011;6246;50.826;4.712;2024-02-21T05:41:43;3.57;;;2.67;;
12363;SDS011;6246;50.826;4.712;2024-02-21T05:44:09;2.70;;;1.87;;
12363;SDS011;6246;50.826;4.712;2024-02-21T05:46:35;2.80;;;2.13;;
12363;SDS011;6246;50.826;4.712;2024-02-21T05:49:01;5.73;;;2.80;;
12363;SDS011;6246;50.826;4.712;2024-02-21T05:51:27;4.47;;;2.67;;
12363;SDS011;6246;50.826;4.712;2024-02-21T05:53:53;2.43;;;2.20;;
12363;SDS011;6246;50.826;4.712;2024-02-21T05:56:19;2.70;;;2.20;;
12363;SDS011;6246;50.826;4.712;2024-02-21T05:58:45;3.70;;;2.30;;
12363;SDS011;6246;50.826;4.712;2024-02-21T06:01:11;4.60;;;2.70;;
12363;SDS011;6246;50.826;4.712;2024-02-21T06:03:37;3.93;;;2.10;;
12363;SDS011;6246;50.826;4.712;2024-02-21T06:06:03;3.70;;;2.00;;
12363;SDS011;6246;50.826;4.712;2024-02-21T06:08:30;2.87;;;2.33;;
12363;SDS011;6246;50.826;4.712;2024-02-21T06:10:56;3.67;;;2.40;;
12363;SDS011;6246;50.826;4.712;2024-02-21T06:13:23;4.90;;;2.20;;
12363;SDS011;6246;50.826;4.712;2024-02-21T06:15:49;2.73;;;2.20;;
12363;SDS011;6246;50.826;4.712;2024-02-21T06:18:17;3.27;;;2.40;;
12363;SDS011;6246;50.826;4.712;2024-02-21T06:20:43;2.60;;;2.37;;
12363;SDS011;6246;50.826;4.712;2024-02-21T06:23:09;3.53;;;1.97;;
12363;SDS011;6246;50.826;4.712;2024-02-21T06:25:35;3.70;;;2.50;;
12363;SDS011;6246;50.826;4.712;2024-02-21T06:28:01;3.57;;;2.13;;
12363;SDS011;6246;50.826;4.712;2024-02-21T06:30:27;3.17;;;2.43;;
12363;SDS011;6246;50.826;4.712;2024-02-21T06:32:53;3.67;;;2.57;;
12363;SDS011;6246;50.826;4.712;2024-02-21T06:35:22;4.33;;;1.87;;
12363;SDS011;6246;50.826;4.712;2024-02-21T06:37:51;4.47;;;2.20;;
12363;SDS011;6246;50.826;4.712;2024-02-21T06:40:17;2.80;;;2.20;;
12363;SDS011;6246;50.826;4.712;2024-02-21T06:42:43;2.33;;;2.10;;
12363;SDS011;6246;50.826;4.712;2024-02-21T06:45:09;3.43;;;2.20;;
12363;SDS011;6246;50.826;4.712;2024-02-21T06:47:35;3.43;;;2.20;;
12363;SDS011;6246;50.826;4.712;2024-02-21T06:50:01;2.70;;;1.93;;
12363;SDS011;6246;50.826;4.712;2024-02-21T06:52:27;2.90;;;2.20;;
12363;SDS011;6246;50.826;4.712;2024-02-21T06:54:53;3.83;;;2.30;;
12363;SDS011;6246;50.826;4.712;2024-02-21T06:57:19;3.97;;;1.93;;
12363;SDS011;6246;50.826;4.712;2024-02-21T06:59:45;5.40;;;2.73;;
12363;SDS011;6246;50.826;4.712;2024-02-21T07:02:11;5.53;;;2.00;;
12363;SDS011;6246;50.826;4.712;2024-02-21T07:04:38;2.13;;;1.93;;
12363;SDS011;6246;50.826;4.712;2024-02-21T07:07:03;3.37;;;1.97;;
12363;SDS011;6246;50.826;4.712;2024-02-21T07:09:30;3.13;;;2.40;;
12363;SDS011;6246;50.826;4.712;2024-02-21T07:11:57;3.47;;;2.00;;
12363;SDS011;6246;50.826;4.712;2024-02-21T07:14:23;3.37;;;2.00;;
12363;SDS011;6246;50.826;4.712;2024-02-21T07:16:50;3.07;;;2.27;;
12363;SDS011;6246;50.826;4.712;2024-02-21T07:19:16;2.30;;;1.90;;
12363;SDS011;6246;50.826;4.712;2024-02-21T07:21:42;3.27;;;2.00;;
12363;SDS011;6246;50.826;4.712;2024-02-21T07:24:08;3.97;;;2.53;;
12363;SDS011;6246;50.826;4.712;2024-02-21T07:26:34;4.93;;;1.97;;
12363;SDS011;6246;50.826;4.712;2024-02-21T07:29:00;2.43;;;1.97;;
12363;SDS011;6246;50.826;4.712;2024-02-21T07:31:26;2.50;;;2.00;;
12363;SDS011;6246;50.826;4.712;2024-02-21T07:33:52;3.57;;;2.07;;
12363;SDS011;6246;50.826;4.712;2024-02-21T07:36:28;1.93;;;1.53;;
12363;SDS011;6246;50.826;4.712;2024-02-21T07:38:55;4.47;;;2.37;;
12363;SDS011;6246;50.826;4.712;2024-02-21T07:41:21;9.40;;;2.20;;
12363;SDS011;6246;50.826;4.712;2024-02-21T07:43:47;7.27;;;2.17;;
12363;SDS011;6246;50.826;4.712;2024-02-21T07:46:13;4.57;;;3.00;;
12363;SDS011;6246;50.826;4.712;2024-02-21T07:48:39;7.40;;;3.10;;
12363;SDS011;6246;50.826;4.712;2024-02-21T07:51:06;6.13;;;3.90;;
12363;SDS011;6246;50.826;4.712;2024-02-21T07:53:31;4.53;;;3.47;;
12363;SDS011;6246;50.826;4.712;2024-02-21T07:55:57;7.27;;;3.87;;
12363;SDS011;6246;50.826;4.712;2024-02-21T07:58:23;5.20;;;3.40;;
12363;SDS011;6246;50.826;4.712;2024-02-21T08:00:49;6.80;;;3.73;;
12363;SDS011;6246;50.826;4.712;2024-02-21T08:03:15;5.63;;;4.10;;
12363;SDS011;6246;50.826;4.712;2024-02-21T08:05:42;4.47;;;3.73;;
12363;SDS011;6246;50.826;4.712;2024-02-21T08:08:08;4.50;;;3.60;;
12363;SDS011;6246;50.826;4.712;2024-02-21T08:10:34;4.23;;;3.70;;
12363;SDS011;6246;50.826;4.712;2024-02-21T08:13:00;3.67;;;3.10;;
12363;SDS011;6246;50.826;4.712;2024-02-21T08:15:26;9.43;;;3.70;;
12363;SDS011;6246;50.826;4.712;2024-02-21T08:17:55;6.20;;;3.83;;
12363;SDS011;6246;50.826;4.712;2024-02-21T08:20:26;5.20;;;3.23;;
12363;SDS011;6246;50.826;4.712;2024-02-21T08:22:52;8.50;;;3.27;;
12363;SDS011;6246;50.826;4.712;2024-02-21T08:25:18;5.90;;;3.43;;
12363;SDS011;6246;50.826;4.712;2024-02-21T08:27:44;10.13;;;3.80;;
12363;SDS011;6246;50.826;4.712;2024-02-21T08:30:11;8.70;;;3.50;;
12363;SDS011;6246;50.826;4.712;2024-02-21T08:32:37;7.50;;;3.30;;
12363;SDS011;6246;50.826;4.712;2024-02-21T08:35:03;10.60;;;4.73;;
12363;SDS011;6246;50.826;4.712;2024-02-21T08:37:30;11.13;;;5.90;;
12363;SDS011;6246;50.826;4.712;2024-02-21T08:39:56;10.83;;;6.30;;
12363;SDS011;6246;50.826;4.712;2024-02-21T08:42:22;14.17;;;8.27;;
12363;SDS011;6246;50.826;4.712;2024-02-21T08:44:48;13.57;;;8.40;;
12363;SDS011;6246;50.826;4.712;2024-02-21T08:47:14;22.93;;;11.50;;
12363;SDS011;6246;50.826;4.712;2024-02-21T08:49:40;13.13;;;7.17;;
12363;SDS011;6246;50.826;4.712;2024-02-21T08:52:06;12.47;;;6.53;;
12363;SDS011;6246;50.826;4.712;2024-02-21T08:54:32;17.57;;;7.00;;
12363;SDS011;6246;50.826;4.712;2024-02-21T08:56:58;17.07;;;7.93;;
12363;SDS011;6246;50.826;4.712;2024-02-21T08:59:24;17.27;;;9.30;;
12363;SDS011;6246;50.826;4.712;2024-02-21T09:01:51;15.80;;;10.23;;
12363;SDS011;6246;50.826;4.712;2024-02-21T09:04:18;19.43;;;11.03;;
12363;SDS011;6246;50.826;4.712;2024-02-21T09:06:44;11.60;;;7.97;;
12363;SDS011;6246;50.826;4.712;2024-02-21T09:09:11;10.83;;;8.23;;
12363;SDS011;6246;50.826;4.712;2024-02-21T09:11:37;13.57;;;7.93;;
12363;SDS011;6246;50.826;4.712;2024-02-21T09:14:05;13.07;;;8.87;;
12363;SDS011;6246;50.826;4.712;2024-02-21T09:16:34;18.07;;;10.20;;
12363;SDS011;6246;50.826;4.712;2024-02-21T09:19:00;15.40;;;10.30;;
12363;SDS011;6246;50.826;4.712;2024-02-21T09:21:26;13.00;;;8.10;;
12363;SDS011;6246;50.826;4.712;2024-02-21T09:23:53;10.97;;;8.47;;
12363;SDS011;6246;50.826;4.712;2024-02-21T09:26:19;16.23;;;9.07;;
12363;SDS011;6246;50.826;4.712;2024-02-21T09:28:45;16.83;;;8.63;;
12363;SDS011;6246;50.826;4.712;2024-02-21T09:31:11;15.47;;;9.23;;
12363;SDS011;6246;50.826;4.712;2024-02-21T09:33:38;13.83;;;9.87;;
12363;SDS011;6246;50.826;4.712;2024-02-21T09:36:04;11.70;;;8.93;;
12363;SDS011;6246;50.826;4.712;2024-02-21T09:38:31;11.90;;;8.03;;
12363;SDS011;6246;50.826;4.712;2024-02-21T09:41:14;14.57;;;8.30;;
12363;SDS011;6246;50.826;4.712;2024-02-21T09:43:42;13.27;;;8.53;;
12363;SDS011;6246;50.826;4.712;2024-02-21T09:46:08;15.00;;;8.73;;
12363;SDS011;6246;50.826;4.712;2024-02-21T09:51:24;12.80;;;9.17;;
12363;SDS011;6246;50.826;4.712;2024-02-21T09:53:50;14.30;;;8.23;;
12363;SDS011;6246;50.826;4.712;2024-02-21T09:56:16;13.17;;;7.83;;
12363;SDS011;6246;50.826;4.712;2024-02-21T09:58:42;14.27;;;8.10;;
12363;SDS011;6246;50.826;4.712;2024-02-21T10:01:08;15.80;;;7.90;;
12363;SDS011;6246;50.826;4.712;2024-02-21T10:03:34;15.83;;;7.80;;
12363;SDS011;6246;50.826;4.712;2024-02-21T10:06:00;9.07;;;6.90;;
12363;SDS011;6246;50.826;4.712;2024-02-21T10:08:27;10.90;;;7.50;;
12363;SDS011;6246;50.826;4.712;2024-02-21T10:10:53;16.60;;;7.70;;
12363;SDS011;6246;50.826;4.712;2024-02-21T10:13:25;15.30;;;7.67;;
12363;SDS011;6246;50.826;4.712;2024-02-21T10:16:02;11.03;;;7.40;;
12363;SDS011;6246;50.826;4.712;2024-02-21T10:18:28;13.13;;;6.93;;
12363;SDS011;6246;50.826;4.712;2024-02-21T10:21:03;12.77;;;7.33;;
12363;SDS011;6246;50.826;4.712;2024-02-21T10:23:40;8.67;;;6.70;;
12363;SDS011;6246;50.826;4.712;2024-02-21T10:26:07;10.93;;;7.30;;
12363;SDS011;6246;50.826;4.712;2024-02-21T10:28:33;10.70;;;7.07;;
12363;SDS011;6246;50.826;4.712;2024-02-21T10:30:59;11.97;;;6.97;;
12363;SDS011;6246;50.826;4.712;2024-02-21T10:33:25;9.70;;;6.27;;
12363;SDS011;6246;50.826;4.712;2024-02-21T10:35:53;12.23;;;6.63;;
12363;SDS011;6246;50.826;4.712;2024-02-21T10:38:19;13.43;;;6.57;;
12363;SDS011;6246;50.826;4.712;2024-02-21T10:40:46;13.63;;;6.67;;
12363;SDS011;6246;50.826;4.712;2024-02-21T10:43:13;9.70;;;5.63;;
12363;SDS011;6246;50.826;4.712;2024-02-21T10:45:39;9.40;;;5.73;;
12363;SDS011;6246;50.826;4.712;2024-02-21T10:48:13;11.20;;;5.60;;
12363;SDS011;6246;50.826;4.712;2024-02-21T10:51:02;9.87;;;6.07;;
12363;SDS011;6246;50.826;4.712;2024-02-21T10:53:29;14.70;;;6.20;;
12363;SDS011;6246;50.826;4.712;2024-02-21T10:56:09;16.40;;;6.40;;
12363;SDS011;6246;50.826;4.712;2024-02-21T10:58:37;15.83;;;6.23;;
12363;SDS011;6246;50.826;4.712;2024-02-21T11:01:03;12.43;;;5.20;;
12363;SDS011;6246;50.826;4.712;2024-02-21T11:03:30;12.30;;;5.93;;
12363;SDS011;6246;50.826;4.712;2024-02-21T11:05:57;14.97;;;5.33;;
12363;SDS011;6246;50.826;4.712;2024-02-21T11:08:23;12.03;;;5.17;;
12363;SDS011;6246;50.826;4.712;2024-02-21T11:10:56;12.87;;;5.27;;
12363;SDS011;6246;50.826;4.712;2024-02-21T11:13:29;12.53;;;4.93;;
12363;SDS011;6246;50.826;4.712;2024-02-21T11:16:05;11.57;;;5.63;;
12363;SDS011;6246;50.826;4.712;2024-02-21T11:18:31;12.40;;;4.97;;
12363;SDS011;6246;50.826;4.712;2024-02-21T11:20:57;12.43;;;5.23;;
12363;SDS011;6246;50.826;4.712;2024-02-21T11:23:26;8.97;;;4.47;;
12363;SDS011;6246;50.826;4.712;2024-02-21T11:25:52;9.67;;;4.83;;
12363;SDS011;6246;50.826;4.712;2024-02-21T11:28:29;7.43;;;4.53;;
12363;SDS011;6246;50.826;4.712;2024-02-21T11:31:04;10.00;;;4.63;;
12363;SDS011;6246;50.826;4.712;2024-02-21T11:33:32;9.07;;;4.60;;
12363;SDS011;6246;50.826;4.712;2024-02-21T11:35:58;6.60;;;4.47;;
12363;SDS011;6246;50.826;4.712;2024-02-21T11:38:24;12.57;;;4.70;;
12363;SDS011;6246;50.826;4.712;2024-02-21T11:40:50;6.80;;;4.10;;
12363;SDS011;6246;50.826;4.712;2024-02-21T11:43:16;7.67;;;4.37;;
12363;SDS011;6246;50.826;4.712;2024-02-21T11:45:42;7.53;;;4.23;;
12363;SDS011;6246;50.826;4.712;2024-02-21T11:48:08;7.13;;;4.40;;
12363;SDS011;6246;50.826;4.712;2024-02-21T11:50:35;7.90;;;4.57;;
12363;SDS011;6246;50.826;4.712;2024-02-21T11:53:01;8.27;;;3.73;;
12363;SDS011;6246;50.826;4.712;2024-02-21T11:55:28;6.83;;;4.10;;
12363;SDS011;6246;50.826;4.712;2024-02-21T11:57:54;5.53;;;3.87;;
12363;SDS011;6246;50.826;4.712;2024-02-21T12:00:20;11.63;;;4.07;;
12363;SDS011;6246;50.826;4.712;2024-02-21T12:02:46;7.13;;;4.10;;
12363;SDS011;6246;50.826;4.712;2024-02-21T12:05:12;8.97;;;4.00;;
12363;SDS011;6246;50.826;4.712;2024-02-21T12:07:39;8.07;;;3.63;;
12363;SDS011;6246;50.826;4.712;2024-02-21T12:10:09;7.33;;;4.00;;
12363;SDS011;6246;50.826;4.712;2024-02-21T12:12:35;6.57;;;3.90;;
12363;SDS011;6246;50.826;4.712;2024-02-21T12:15:03;7.60;;;3.90;;
12363;SDS011;6246;50.826;4.712;2024-02-21T12:17:30;5.93;;;3.63;;
12363;SDS011;6246;50.826;4.712;2024-02-21T12:19:56;8.70;;;3.93;;
12363;SDS011;6246;50.826;4.712;2024-02-21T12:22:22;3.87;;;3.27;;
12363;SDS011;6246;50.826;4.712;2024-02-21T12:24:48;6.13;;;3.50;;
12363;SDS011;6246;50.826;4.712;2024-02-21T12:27:14;7.90;;;3.50;;
12363;SDS011;6246;50.826;4.712;2024-02-21T12:29:40;4.70;;;3.33;;
12363;SDS011;6246;50.826;4.712;2024-02-21T12:32:06;3.97;;;3.03;;
12363;SDS011;6246;50.826;4.712;2024-02-21T12:34:32;6.67;;;3.60;;
12363;SDS011;6246;50.826;4.712;2024-02-21T12:36:58;6.17;;;3.63;;
12363;SDS011;6246;50.826;4.712;2024-02-21T12:39:24;7.30;;;3.30;;
12363;SDS011;6246;50.826;4.712;2024-02-21T12:41:53;5.30;;;3.50;;
12363;SDS011;6246;50.826;4.712;2024-02-21T12:44:21;3.87;;;3.10;;
12363;SDS011;6246;50.826;4.712;2024-02-21T12:46:47;5.57;;;3.30;;
12363;SDS011;6246;50.826;4.712;2024-02-21T12:49:17;5.90;;;3.20;;
12363;SDS011;6246;50.826;4.712;2024-02-21T12:51:44;7.53;;;3.57;;
12363;SDS011;6246;50.826;4.712;2024-02-21T12:54:11;5.20;;;2.83;;
12363;SDS011;6246;50.826;4.712;2024-02-21T12:56:38;7.50;;;3.30;;
12363;SDS011;6246;50.826;4.712;2024-02-21T12:59:05;12.10;;;8.40;;
12363;SDS011;6246;50.826;4.712;2024-02-21T13:01:34;15.43;;;9.80;;
12363;SDS011;6246;50.826;4.712;2024-02-21T13:04:00;14.30;;;9.70;;
12363;SDS011;6246;50.826;4.712;2024-02-21T13:06:26;15.17;;;9.27;;
12363;SDS011;6246;50.826;4.712;2024-02-21T13:08:52;12.53;;;8.47;;
12363;SDS011;6246;50.826;4.712;2024-02-21T13:11:19;11.90;;;8.70;;
12363;SDS011;6246;50.826;4.712;2024-02-21T13:13:45;15.10;;;9.00;;
12363;SDS011;6246;50.826;4.712;2024-02-21T13:16:11;14.90;;;9.00;;
12363;SDS011;6246;50.826;4.712;2024-02-21T13:18:37;16.77;;;9.70;;
12363;SDS011;6246;50.826;4.712;2024-02-21T13:21:04;14.93;;;8.30;;
12363;SDS011;6246;50.826;4.712;2024-02-21T13:23:31;13.77;;;8.23;;
12363;SDS011;6246;50.826;4.712;2024-02-21T13:25:57;11.37;;;7.23;;
12363;SDS011;6246;50.826;4.712;2024-02-21T13:28:23;11.07;;;7.80;;
12363;SDS011;6246;50.826;4.712;2024-02-21T13:30:49;12.73;;;7.40;;
12363;SDS011;6246;50.826;4.712;2024-02-21T13:33:15;12.03;;;7.77;;
12363;SDS011;6246;50.826;4.712;2024-02-21T13:35:41;11.83;;;7.80;;
12363;SDS011;6246;50.826;4.712;2024-02-21T13:38:07;13.80;;;7.80;;
12363;SDS011;6246;50.826;4.712;2024-02-21T13:40:35;11.60;;;7.63;;
12363;SDS011;6246;50.826;4.712;2024-02-21T13:43:01;10.90;;;7.73;;
12363;SDS011;6246;50.826;4.712;2024-02-21T13:45:27;10.20;;;7.50;;
12363;SDS011;6246;50.826;4.712;2024-02-21T13:47:54;8.93;;;7.00;;
12363;SDS011;6246;50.826;4.712;2024-02-21T13:50:23;13.10;;;7.13;;
12363;SDS011;6246;50.826;4.712;2024-02-21T13:52:51;8.10;;;6.30;;
12363;SDS011;6246;50.826;4.712;2024-02-21T13:55:17;9.63;;;6.87;;
12363;SDS011;6246;50.826;4.712;2024-02-21T13:57:45;10.10;;;6.27;;
12363;SDS011;6246;50.826;4.712;2024-02-21T14:00:11;8.57;;;6.57;;
12363;SDS011;6246;50.826;4.712;2024-02-21T14:02:37;9.67;;;6.43;;
12363;SDS011;6246;50.826;4.712;2024-02-21T14:05:04;8.90;;;6.53;;
12363;SDS011;6246;50.826;4.712;2024-02-21T14:07:31;10.63;;;6.27;;
12363;SDS011;6246;50.826;4.712;2024-02-21T14:09:58;9.13;;;5.87;;
12363;SDS011;6246;50.826;4.712;2024-02-21T14:12:24;8.17;;;5.43;;
12363;SDS011;6246;50.826;4.712;2024-02-21T14:14:50;7.73;;;5.77;;
12363;SDS011;6246;50.826;4.712;2024-02-21T14:17:17;8.53;;;5.80;;
12363;SDS011;6246;50.826;4.712;2024-02-21T14:19:43;9.33;;;5.73;;
12363;SDS011;6246;50.826;4.712;2024-02-21T14:22:09;8.47;;;6.17;;
12363;SDS011;6246;50.826;4.712;2024-02-21T14:24:36;8.33;;;5.70;;
12363;SDS011;6246;50.826;4.712;2024-02-21T14:27:02;12.23;;;6.33;;
12363;SDS011;6246;50.826;4.712;2024-02-21T14:29:29;8.80;;;5.27;;
12363;SDS011;6246;50.826;4.712;2024-02-21T14:31:55;10.03;;;5.67;;
12363;SDS011;6246;50.826;4.712;2024-02-21T14:34:21;9.63;;;5.87;;
12363;SDS011;6246;50.826;4.712;2024-02-21T14:36:47;8.17;;;5.37;;
12363;SDS011;6246;50.826;4.712;2024-02-21T14:39:13;8.77;;;5.37;;
12363;SDS011;6246;50.826;4.712;2024-02-21T14:41:39;9.57;;;5.43;;
12363;SDS011;6246;50.826;4.712;2024-02-21T14:44:05;7.03;;;4.70;;
12363;SDS011;6246;50.826;4.712;2024-02-21T14:46:34;8.07;;;5.03;;
12363;SDS011;6246;50.826;4.712;2024-02-21T14:49:00;8.53;;;4.83;;
12363;SDS011;6246;50.826;4.712;2024-02-21T14:51:27;5.60;;;4.93;;
12363;SDS011;6246;50.826;4.712;2024-02-21T14:53:53;8.87;;;5.17;;
12363;SDS011;6246;50.826;4.712;2024-02-21T14:56:20;6.73;;;4.90;;
12363;SDS011;6246;50.826;4.712;2024-02-21T14:58:46;6.90;;;4.87;;